createdAt,value
2023-05-14T00:02:13.286Z,100868.25
2023-05-14T00:05:21.693Z,100856.44
2023-05-14T00:08:36.673Z,100842.78
2023-05-14T00:11:38.715Z,100849.81
2023-05-14T00:14:53.659Z,100845.00
2023-05-14T00:18:08.984Z,100842.59
2023-05-14T00:21:17.639Z,100846.69
2023-05-14T00:24:32.662Z,100819.91
2023-05-14T00:27:35.632Z,100837.00
2023-05-14T00:30:50.656Z,100834.31
2023-05-14T00:33:52.557Z,100826.06
2023-05-14T00:37:07.658Z,100833.28
2023-05-14T00:40:24.081Z,100827.63
2023-05-14T00:43:26.164Z,100829.53
2023-05-14T00:46:40.730Z,100826.31
2023-05-14T00:49:49.667Z,100826.31
2023-05-14T00:52:58.192Z,100818.28
2023-05-14T00:56:13.679Z,100827.06
2023-05-14T00:59:21.658Z,100820.37
2023-05-14T01:02:30.314Z,100817.72
2023-05-14T01:06:12.644Z,100805.94
2023-05-14T01:09:48.657Z,100809.97
2023-05-14T01:12:59.706Z,100797.88
2023-05-14T01:16:19.712Z,100800.84
2023-05-14T01:19:50.674Z,100791.97
2023-05-14T01:22:59.289Z,100796.81
2023-05-14T01:26:13.657Z,100794.19
2023-05-14T01:29:23.294Z,100789.94
2023-05-14T01:32:39.722Z,100783.00
2023-05-14T01:35:49.675Z,100784.41
2023-05-14T01:39:05.646Z,100783.09
2023-05-14T01:42:14.665Z,100773.69
2023-05-14T01:45:30.647Z,100771.28
2023-05-14T01:48:45.691Z,100764.59
2023-05-14T01:51:53.666Z,100766.16
2023-05-14T01:55:02.349Z,100748.22
2023-05-14T01:58:10.635Z,100745.78
2023-05-14T02:01:25.675Z,100740.97
2023-05-14T02:04:34.208Z,100732.66
2023-05-14T02:07:48.707Z,100725.66
2023-05-14T02:11:03.629Z,100724.31
2023-05-14T02:14:11.661Z,100718.16
2023-05-14T02:17:26.669Z,100726.22
2023-05-14T02:20:48.672Z,100717.06
2023-05-14T02:23:57.280Z,100719.00
2023-05-14T02:27:05.695Z,100733.72
2023-05-14T02:30:14.259Z,100727.56
2023-05-14T02:33:28.760Z,100689.84
2023-05-14T02:36:30.630Z,100718.72
2023-05-14T02:39:45.673Z,100736.09
2023-05-14T02:43:00.664Z,100730.97
2023-05-14T02:46:02.551Z,100720.56
2023-05-14T02:49:17.673Z,100715.94
2023-05-14T02:52:19.505Z,100725.84
2023-05-14T02:55:34.680Z,100712.78
2023-05-14T02:58:36.572Z,100721.25
2023-05-14T03:01:51.678Z,100715.88
2023-05-14T03:05:00.237Z,100696.69
2023-05-14T03:08:08.669Z,100719.69
2023-05-14T03:11:17.313Z,100716.41
2023-05-14T03:14:25.665Z,100714.81
2023-05-14T03:17:47.696Z,100712.94
2023-05-14T03:20:49.524Z,100714.28
2023-05-14T03:24:04.673Z,100718.81
2023-05-14T03:27:13.195Z,100719.63
2023-05-14T03:30:21.993Z,100721.72
2023-05-14T03:33:36.682Z,100718.25
2023-05-14T03:36:44.643Z,100719.63
2023-05-14T03:39:59.686Z,100717.78
2023-05-14T03:43:01.561Z,100708.16
2023-05-14T03:46:16.699Z,100711.37
2023-05-14T03:49:32.660Z,100718.59
2023-05-14T03:52:40.671Z,100709.50
2023-05-14T03:55:49.268Z,100706.78
2023-05-14T03:58:58.677Z,100697.38
2023-05-14T04:02:07.722Z,100688.03
2023-05-14T04:05:16.716Z,100699.78
2023-05-14T04:08:25.196Z,100698.72
2023-05-14T04:11:39.677Z,100703.06
2023-05-14T04:14:47.696Z,100698.19
2023-05-14T04:18:02.989Z,100702.78
2023-05-14T04:21:17.668Z,100704.59
2023-05-14T04:24:26.216Z,100697.09
2023-05-14T04:27:40.678Z,100697.63
2023-05-14T04:30:42.488Z,100684.19
2023-05-14T04:33:57.672Z,100695.41
2023-05-14T04:37:12.674Z,100700.84
2023-05-14T04:40:21.905Z,100682.62
2023-05-14T04:43:30.135Z,100649.28
2023-05-14T04:46:44.692Z,100685.28
2023-05-14T04:49:52.648Z,100692.25
2023-05-14T04:53:01.284Z,100687.47
2023-05-14T04:56:09.648Z,100676.25
2023-05-14T04:59:18.255Z,100686.94
2023-05-14T05:02:26.665Z,100686.09
2023-05-14T05:05:41.672Z,100678.56
2023-05-14T05:08:49.675Z,100679.75
2023-05-14T05:11:58.261Z,100678.13
2023-05-14T05:15:06.677Z,100681.84
2023-05-14T05:18:21.937Z,100680.25
2023-05-14T05:21:37.653Z,100678.31
2023-05-14T05:24:47.038Z,100675.13
2023-05-14T05:27:56.707Z,100677.25
2023-05-14T05:31:11.710Z,100673.41
2023-05-14T05:34:19.657Z,100668.94
2023-05-14T05:37:34.677Z,100666.56
2023-05-14T05:40:36.585Z,100678.81
2023-05-14T05:43:51.723Z,100675.06
2023-05-14T05:47:06.697Z,100674.59
2023-05-14T05:50:09.116Z,100670.25
2023-05-14T05:53:23.669Z,100667.03
2023-05-14T05:56:32.207Z,100663.72
2023-05-14T05:59:46.656Z,100673.66
2023-05-14T06:02:55.264Z,100675.38
2023-05-14T06:06:09.692Z,100681.28
2023-05-14T06:09:11.561Z,100679.62
2023-05-14T06:12:26.665Z,100680.72
2023-05-14T06:15:35.258Z,100663.09
2023-05-14T06:18:56.698Z,100681.47
2023-05-14T06:22:04.691Z,100680.44
2023-05-14T06:25:19.682Z,100676.69
2023-05-14T06:28:28.239Z,100683.59
2023-05-14T06:31:36.751Z,100685.19
2023-05-14T06:34:45.180Z,100689.53
2023-05-14T06:37:59.694Z,100688.50
2023-05-14T06:41:21.765Z,100684.16
2023-05-14T06:44:30.252Z,100681.44
2023-05-14T06:47:38.758Z,100677.87
2023-05-14T06:50:54.671Z,100668.97
2023-05-14T06:54:02.671Z,100665.16
2023-05-14T06:57:17.677Z,100669.41
2023-05-14T07:00:20.161Z,100667.78
2023-05-14T07:03:34.759Z,100655.97
2023-05-14T07:06:36.742Z,100667.19
2023-05-14T07:09:51.663Z,100662.28
2023-05-14T07:13:00.240Z,100661.91
2023-05-14T07:16:15.676Z,100649.81
2023-05-14T07:19:30.892Z,100654.75
2023-05-14T07:22:45.722Z,100641.25
2023-05-14T07:25:47.603Z,100646.19
2023-05-14T07:29:02.675Z,100645.47
2023-05-14T07:32:17.657Z,100632.41
2023-05-14T07:35:19.549Z,100633.28
2023-05-14T07:38:34.663Z,100628.91
2023-05-14T07:41:49.675Z,100627.97
2023-05-14T07:45:04.678Z,100631.56
2023-05-14T07:48:19.752Z,100628.00
2023-05-14T07:51:28.678Z,100630.81
2023-05-14T07:54:43.684Z,100621.66
2023-05-14T07:57:52.208Z,100630.88
2023-05-14T08:01:00.686Z,100623.34
2023-05-14T08:04:09.360Z,100616.28
2023-05-14T08:07:24.689Z,100611.81
2023-05-14T08:10:26.945Z,100610.50
2023-05-14T08:13:41.671Z,100615.41
2023-05-14T08:17:03.805Z,100600.63
2023-05-14T08:20:18.669Z,100576.09
2023-05-14T08:23:27.283Z,100593.88
2023-05-14T08:26:35.661Z,100583.63
2023-05-14T08:29:50.694Z,100580.03
2023-05-14T08:32:52.585Z,100579.94
2023-05-14T08:36:07.704Z,100572.97
2023-05-14T08:39:16.259Z,100572.16
2023-05-14T08:42:31.672Z,100573.03
2023-05-14T08:45:35.384Z,100567.69
2023-05-14T08:48:54.756Z,100558.94
2023-05-14T08:51:57.408Z,100552.16
2023-05-14T08:55:13.695Z,100537.91
2023-05-14T08:58:28.712Z,100548.84
2023-05-14T09:01:45.733Z,100541.06
2023-05-14T09:05:05.684Z,100556.91
2023-05-14T09:08:21.682Z,100551.75
2023-05-14T09:11:23.530Z,100545.00
2023-05-14T09:14:39.666Z,100551.38
2023-05-14T09:17:41.596Z,100551.75
2023-05-14T09:20:57.668Z,100548.06
2023-05-14T09:24:12.688Z,100552.16
2023-05-14T09:27:27.658Z,100545.25
2023-05-14T09:30:29.608Z,100538.97
2023-05-14T09:33:44.670Z,100540.09
2023-05-14T09:36:52.675Z,100534.72
2023-05-14T09:40:06.508Z,100540.41
2023-05-14T09:43:21.677Z,100526.62
2023-05-14T09:46:30.688Z,100527.12
2023-05-14T09:49:40.043Z,100515.78
2023-05-14T09:52:48.703Z,100507.22
2023-05-14T09:56:03.697Z,100502.09
2023-05-14T09:59:18.669Z,100502.19
2023-05-14T10:02:27.144Z,100510.50
2023-05-14T10:05:42.697Z,100498.13
2023-05-14T10:08:55.894Z,100498.34
2023-05-14T10:12:11.694Z,100481.06
2023-05-14T10:15:28.774Z,100470.03
2023-05-14T10:18:55.081Z,100446.28
2023-05-14T10:22:14.702Z,100420.06
2023-05-14T10:25:29.700Z,100411.06
2023-05-14T10:28:38.361Z,100413.87
2023-05-14T10:32:01.677Z,100396.16
2023-05-14T10:35:16.512Z,100394.03
2023-05-14T10:38:36.766Z,100425.34
2023-05-14T10:41:45.238Z,100434.13
2023-05-14T10:44:55.723Z,100429.03
2023-05-14T10:48:10.760Z,100444.00
2023-05-14T10:51:19.250Z,100447.69
2023-05-14T10:54:34.741Z,100435.12
2023-05-14T10:57:52.692Z,100432.22
2023-05-14T11:01:07.699Z,100410.81
2023-05-14T11:04:23.936Z,100403.22
2023-05-14T11:07:41.714Z,100411.19
2023-05-14T11:10:50.722Z,100404.22
2023-05-14T11:13:59.446Z,100407.72
2023-05-14T11:17:15.760Z,100406.09
2023-05-14T11:20:30.974Z,100403.63
2023-05-14T11:23:39.692Z,100404.41
2023-05-14T11:26:54.680Z,100401.19
2023-05-14T11:30:03.518Z,100398.03
2023-05-14T11:33:18.836Z,100398.66
2023-05-14T11:36:33.707Z,100399.63
2023-05-14T11:39:42.670Z,100391.88
2023-05-14T11:42:58.710Z,100389.66
2023-05-14T11:46:00.591Z,100395.81
2023-05-14T11:49:16.692Z,100391.88
2023-05-14T11:52:27.741Z,100393.37
2023-05-14T11:55:42.769Z,100345.16
2023-05-14T11:59:03.697Z,100385.97
2023-05-14T12:02:14.933Z,100373.16
2023-05-14T12:05:23.678Z,100372.13
2023-05-14T12:08:39.703Z,100358.59
2023-05-14T12:11:49.442Z,100357.19
2023-05-14T12:15:06.700Z,100358.41
2023-05-14T12:18:28.822Z,100353.31
2023-05-14T12:21:44.697Z,100344.97
2023-05-14T12:24:57.802Z,100344.16
2023-05-14T12:28:22.721Z,100339.09
2023-05-14T12:31:38.737Z,100341.28
2023-05-14T12:34:53.715Z,100326.72
2023-05-14T12:37:55.602Z,100340.00
2023-05-14T12:41:10.700Z,100332.41
2023-05-14T12:44:18.691Z,100332.22
2023-05-14T12:47:27.322Z,100324.53
2023-05-14T12:50:35.694Z,100330.91
2023-05-14T12:53:50.698Z,100328.84
2023-05-14T12:56:58.737Z,100327.53
2023-05-14T13:00:08.686Z,100319.97
2023-05-14T13:03:16.821Z,100303.12
2023-05-14T13:06:25.277Z,100301.56
2023-05-14T13:09:39.684Z,100293.28
2023-05-14T13:12:48.299Z,100285.50
2023-05-14T13:15:56.719Z,100265.41
2023-05-14T13:19:12.118Z,100278.44
2023-05-14T13:22:26.669Z,100275.34
2023-05-14T13:25:34.693Z,100257.22
2023-05-14T13:28:49.679Z,100273.94
2023-05-14T13:32:04.700Z,100264.31
2023-05-14T13:35:20.687Z,100246.94
2023-05-14T13:38:28.704Z,100232.53
2023-05-14T13:41:37.258Z,100247.97
2023-05-14T13:44:51.703Z,100247.44
2023-05-14T13:47:59.775Z,100237.28
2023-05-14T13:51:14.761Z,100229.72
2023-05-14T13:54:29.739Z,100224.84
2023-05-14T13:57:44.715Z,100228.94
2023-05-14T14:00:59.788Z,100220.56
2023-05-14T14:04:01.650Z,100217.78
2023-05-14T14:07:16.690Z,100204.75
2023-05-14T14:10:18.516Z,100211.00
2023-05-14T14:13:33.758Z,100214.88
2023-05-14T14:16:48.732Z,100201.75
2023-05-14T14:20:10.680Z,100209.44
2023-05-14T14:23:25.759Z,100214.00
2023-05-14T14:26:40.724Z,100201.47
2023-05-14T14:29:55.730Z,100190.56
2023-05-14T14:33:04.410Z,100214.13
2023-05-14T14:36:19.785Z,100215.81
2023-05-14T14:39:28.256Z,100196.91
2023-05-14T14:42:43.746Z,100196.50
2023-05-14T14:45:58.747Z,100203.88
2023-05-14T14:49:00.668Z,100193.72
2023-05-14T14:52:15.734Z,100188.03
2023-05-14T14:55:24.497Z,100183.56
2023-05-14T14:58:33.725Z,100178.69
2023-05-14T15:01:48.833Z,100179.19
2023-05-14T15:04:57.290Z,100168.16
2023-05-14T15:08:05.725Z,100158.91
2023-05-14T15:11:14.641Z,100159.72
2023-05-14T15:14:22.793Z,100150.19
2023-05-14T15:17:31.253Z,100158.72
2023-05-14T15:20:39.704Z,100151.25
2023-05-14T15:23:54.721Z,100146.78
2023-05-14T15:27:09.720Z,100127.78
2023-05-14T15:30:18.737Z,100137.12
2023-05-14T15:33:33.699Z,100133.84
2023-05-14T15:36:48.705Z,100139.53
2023-05-14T15:39:50.564Z,100132.84
2023-05-14T15:43:05.711Z,100136.03
2023-05-14T15:46:07.730Z,100137.41
2023-05-14T15:49:22.723Z,100131.56
2023-05-14T15:52:24.608Z,100127.88
2023-05-14T15:55:39.728Z,100124.59
2023-05-14T15:58:48.788Z,100108.97
2023-05-14T16:02:03.827Z,100089.91
2023-05-14T16:05:20.781Z,100088.69
2023-05-14T16:08:35.726Z,100081.63
2023-05-14T16:11:50.751Z,100059.47
2023-05-14T16:14:59.293Z,100078.34
2023-05-14T16:18:13.704Z,100076.16
2023-05-14T16:21:29.010Z,100084.72
2023-05-14T16:24:37.742Z,100086.41
2023-05-14T16:27:52.755Z,100086.09
2023-05-14T16:31:07.758Z,100087.63
2023-05-14T16:34:09.608Z,100085.69
2023-05-14T16:37:25.708Z,100080.34
2023-05-14T16:40:34.308Z,100074.97
2023-05-14T16:43:43.712Z,100076.56
2023-05-14T16:46:52.400Z,100061.03
2023-05-14T16:50:00.702Z,100058.56
2023-05-14T16:53:09.281Z,100050.69
2023-05-14T16:56:23.756Z,100045.94
2023-05-14T16:59:31.705Z,100040.75
2023-05-14T17:02:40.366Z,100032.12
2023-05-14T17:05:54.909Z,100031.91
2023-05-14T17:09:03.702Z,100031.62
2023-05-14T17:12:12.262Z,100032.41
2023-05-14T17:15:20.701Z,100026.25
2023-05-14T17:18:29.832Z,100024.06
2023-05-14T17:21:51.725Z,100010.31
2023-05-14T17:25:00.688Z,100013.13
2023-05-14T17:28:15.696Z,100015.22
2023-05-14T17:31:24.334Z,99994.41
2023-05-14T17:34:38.692Z,99996.22
2023-05-14T17:37:53.725Z,99995.59
2023-05-14T17:40:55.824Z,99988.47
2023-05-14T17:44:12.725Z,99987.38
2023-05-14T17:47:27.754Z,99984.06
2023-05-14T17:50:29.697Z,99988.84
2023-05-14T17:53:44.707Z,99988.84
2023-05-14T17:57:00.755Z,99989.44
2023-05-14T18:00:15.719Z,99979.22
2023-05-14T18:03:30.809Z,99971.16
2023-05-14T18:06:33.041Z,99957.03
2023-05-14T18:09:48.816Z,99961.19
2023-05-14T18:12:58.521Z,99969.56
2023-05-14T18:16:07.889Z,99947.91
2023-05-14T18:19:29.719Z,99941.31
2023-05-14T18:22:45.725Z,99944.59
2023-05-14T18:26:01.764Z,99937.75
2023-05-14T18:29:18.190Z,99960.41
2023-05-14T18:32:21.449Z,99958.03
2023-05-14T18:35:38.082Z,99969.25
2023-05-14T18:38:54.086Z,99977.31
2023-05-14T18:42:03.727Z,99970.84
2023-05-14T18:45:13.664Z,99975.72
2023-05-14T18:48:23.726Z,99969.13
2023-05-14T18:51:41.167Z,99964.19
2023-05-14T18:54:51.198Z,99957.59
2023-05-14T18:58:01.073Z,99969.34
2023-05-14T19:01:19.150Z,99962.06
2023-05-14T19:04:29.726Z,99957.81
2023-05-14T19:07:49.622Z,99976.97
2023-05-14T19:10:53.403Z,99968.59
2023-05-14T19:14:09.703Z,99970.50
2023-05-14T19:17:20.594Z,99957.97
2023-05-14T19:20:30.728Z,99953.59
2023-05-14T19:23:54.772Z,99946.03
2023-05-14T19:26:58.042Z,99946.03
2023-05-14T19:30:14.763Z,99952.19
2023-05-14T19:33:30.709Z,99941.44
2023-05-14T19:36:33.547Z,99932.28
2023-05-14T19:39:50.149Z,99935.28
2023-05-14T19:42:59.684Z,99936.56
2023-05-14T19:46:09.117Z,99930.22
2023-05-14T19:49:18.267Z,99937.97
2023-05-14T19:52:33.775Z,99935.16
2023-05-14T19:55:49.746Z,99928.69
2023-05-14T19:58:58.937Z,99928.69
2023-05-14T20:02:14.968Z,99934.06
2023-05-14T20:05:23.742Z,99931.06
2023-05-14T20:08:32.572Z,99937.72
2023-05-14T20:11:40.737Z,99940.41
2023-05-14T20:14:49.472Z,99934.06
2023-05-14T20:17:59.078Z,99929.00
2023-05-14T20:21:14.098Z,99927.09
2023-05-14T20:24:29.001Z,99922.22
2023-05-14T20:27:43.735Z,99919.22
2023-05-14T20:30:59.146Z,99909.28
2023-05-14T20:34:07.773Z,99929.97
2023-05-14T20:37:16.541Z,99922.41
2023-05-14T20:40:31.818Z,99910.53
2023-05-14T20:43:40.334Z,99903.22
2023-05-14T20:46:54.752Z,99904.53
2023-05-14T20:49:56.661Z,99900.22
2023-05-14T20:53:18.709Z,99892.66
2023-05-14T20:56:27.347Z,99833.91
2023-05-14T20:59:41.740Z,99884.00
2023-05-14T21:02:43.660Z,99883.88
2023-05-14T21:05:58.710Z,99875.22
2023-05-14T21:09:06.750Z,99858.28
2023-05-14T21:12:15.361Z,99860.19
2023-05-14T21:15:29.744Z,99866.97
2023-05-14T21:18:38.756Z,99859.38
2023-05-14T21:22:00.717Z,99859.69
2023-05-14T21:25:09.660Z,99858.09
2023-05-14T21:28:17.712Z,99830.53
2023-05-14T21:31:32.816Z,99853.03
2023-05-14T21:34:40.762Z,99838.81
2023-05-14T21:37:49.214Z,99844.19
2023-05-14T21:40:57.724Z,99829.19
2023-05-14T21:44:12.739Z,99811.00
2023-05-14T21:47:27.802Z,99803.53
2023-05-14T21:50:29.751Z,99799.75
2023-05-14T21:53:44.736Z,99776.16
2023-05-14T21:56:53.446Z,99793.44
2023-05-14T22:00:09.755Z,99783.28
2023-05-14T22:03:18.458Z,99781.88
2023-05-14T22:06:33.762Z,99786.13
2023-05-14T22:09:50.124Z,99803.53
2023-05-14T22:12:52.084Z,99806.22
2023-05-14T22:16:12.842Z,99789.00
2023-05-14T22:19:16.377Z,99800.69
2023-05-14T22:22:38.743Z,99808.31
2023-05-14T22:25:47.297Z,99804.53
2023-05-14T22:28:55.726Z,99800.25
2023-05-14T22:32:04.574Z,99802.31
2023-05-14T22:35:19.753Z,99803.87
2023-05-14T22:38:21.613Z,99795.84
2023-05-14T22:41:36.719Z,99786.69
2023-05-14T22:44:38.529Z,99794.56
2023-05-14T22:47:53.806Z,99793.16
2023-05-14T22:51:01.741Z,99800.91
2023-05-14T22:54:18.406Z,99800.91
2023-05-14T22:57:20.313Z,99780.97
2023-05-14T23:00:34.745Z,99799.50
2023-05-14T23:03:42.744Z,99798.72
2023-05-14T23:06:51.318Z,99781.44
2023-05-14T23:09:59.750Z,99788.75
2023-05-14T23:13:14.721Z,99802.97
2023-05-14T23:16:16.685Z,99799.00
2023-05-14T23:19:31.790Z,99790.94
2023-05-14T23:22:53.744Z,99784.47
2023-05-14T23:25:55.603Z,99773.72
2023-05-14T23:29:10.735Z,99760.31
2023-05-14T23:32:12.581Z,99758.41
2023-05-14T23:35:30.724Z,99755.72
2023-05-14T23:38:40.054Z,99748.16
2023-05-14T23:41:48.731Z,99746.53
2023-05-14T23:44:57.293Z,99740.41
2023-05-14T23:48:06.781Z,99732.47
2023-05-14T23:51:21.727Z,99716.38
2023-05-14T23:54:29.742Z,99723.66
2023-05-14T23:57:44.740Z,99722.56
